< < Back
Terminal Aerodrome Forecast


Current Version              Previous Versions:   1  2  3  4  5  6  7  8  9  

Terminal Aerodrome Forecast

511
FTUS42 KGSP 281700
TAFGSP
TAF
KGSP 281724Z 2818/2918 29013G18KT P6SM FEW050
     FM282200 32009KT P6SM FEW250
     FM290600 35005KT P6SM FEW250=



Latest METAR

934
SAUS70 KWBC 290400 RRC
MTRGSP
METAR KGSP 290353Z AUTO 35006KT 10SM FEW090 23/14 A2993 RMK AO2 SLP120
T02280144


USA.gov is the U.S. government's official web portal to all federal, state and local government web resources and services.